Time;durP1;ratioP1;P1;durP2;ratioP2;P2;SDS_P1;SDS_P2;PMS_P1;PMS_P2;Temp;Humidity;BMP_temperature;BMP_pressure;BME280_temperature;BME280_humidity;BME280_pressure;Samples;Min_cycle;Max_cycle;Signal;HPM_P1;HPM_P2
2022/12/27 00:00:48;;;;;;;5.70;2.40;;;;;;;9.89;44.15;100788.28;10472265;28;20238;-68
2022/12/27 00:05:50;;;;;;;5.70;2.83;;;;;;;8.73;46.05;100832.59;10455023;28;20227;-69
2022/12/27 00:10:51;;;;;;;2.80;2.30;;;;;;;8.28;46.30;100829.59;10449528;28;20757;-68
2022/12/27 00:15:53;;;;;;;3.97;2.20;;;;;;;8.33;46.80;100831.00;10459972;28;20252;-68
2022/12/27 00:20:59;;;;;;;3.83;2.43;;;;;;;8.79;45.87;100824.84;10473365;28;20254;-68
2022/12/27 00:26:06;;;;;;;5.73;2.67;;;;;;;9.12;45.50;100803.06;10470011;28;20236;-68
2022/12/27 00:31:08;;;;;;;4.20;2.50;;;;;;;9.42;44.94;100833.91;10467117;28;20242;-68
2022/12/27 00:36:13;;;;;;;4.70;2.47;;;;;;;10.46;43.67;100821.75;10473965;28;20743;-67
2022/12/27 00:41:16;;;;;;;8.37;3.10;;;;;;;10.17;44.36;100851.50;10470070;28;20875;-67
2022/12/27 00:46:18;;;;;;;6.73;2.87;;;;;;;9.65;44.95;100858.38;10465989;28;20886;-67
2022/12/27 00:51:23;;;;;;;2.70;2.50;;;;;;;8.76;46.07;100843.81;10468995;28;20228;-67
2022/12/27 00:56:27;;;;;;;2.60;2.40;;;;;;;9.59;46.28;100832.25;10454340;28;20583;-67
2022/12/27 01:01:31;;;;;;;4.83;3.23;;;;;;;9.86;45.01;100862.59;10473207;28;20259;-67
2022/12/27 01:06:34;;;;;;;3.20;2.57;;;;;;;10.20;44.48;100869.91;10471756;28;20231;-66
2022/12/27 01:11:36;;;;;;;5.07;2.67;;;;;;;10.22;43.89;100873.25;10473281;28;20244;-67
2022/12/27 01:16:39;;;;;;;2.97;2.67;;;;;;;9.77;45.10;100865.16;10468247;28;20235;-66
2022/12/27 01:21:41;;;;;;;4.00;2.50;;;;;;;10.55;44.37;100868.97;10477736;28;20235;-67
2022/12/27 01:26:42;;;;;;;4.30;3.00;;;;;;;9.42;45.25;100849.13;10470899;28;20231;-67
2022/12/27 01:31:44;;;;;;;4.27;2.63;;;;;;;10.41;44.15;100886.47;10464460;28;20269;-67
2022/12/27 01:36:46;;;;;;;4.13;2.60;;;;;;;10.40;44.22;100895.47;10471509;28;20318;-67
2022/12/27 01:47:14;;;;;;;2.83;2.60;;;;;;;9.71;45.41;100894.34;10466014;28;20241;-67
2022/12/27 01:52:16;;;;;;;4.23;3.00;;;;;;;9.65;45.29;100898.47;10461510;28;20228;-67
2022/12/27 01:57:18;;;;;;;2.93;2.67;;;;;;;9.36;46.07;100895.97;10455118;28;20235;-66
2022/12/27 02:02:21;;;;;;;7.17;3.20;;;;;;;8.23;47.77;100858.53;10473121;28;20246;-66
2022/12/27 02:07:32;;;;;;;5.77;3.70;;;;;;;8.41;47.78;100863.97;10464534;28;20262;-67
2022/12/27 02:12:33;;;;;;;5.93;3.37;;;;;;;8.62;47.38;100863.81;10469806;28;20224;-67
2022/12/27 02:17:35;;;;;;;8.47;3.67;;;;;;;7.40;49.23;100841.25;10446062;28;20231;-67
2022/12/27 02:28:55;;;;;;;5.13;3.00;;;;;;;7.83;47.98;100834.69;10468457;28;20231;-67
2022/12/27 02:33:59;;;;;;;4.27;3.10;;;;;;;8.13;47.31;100830.22;10457425;28;20227;-67
2022/12/27 02:39:02;;;;;;;6.47;3.10;;;;;;;7.90;47.96;100844.69;10440514;28;20939;-67
2022/12/27 02:55:09;;;;;;;5.30;3.13;;;;;;;9.35;46.68;100774.09;10475480;28;20738;-67
2022/12/27 03:06:38;;;;;;;6.40;3.77;;;;;;;7.98;47.31;100838.63;10478178;28;20235;-66
2022/12/27 03:16:57;;;;;;;4.47;3.10;;;;;;;8.62;46.53;100820.25;10436308;28;20245;-66
2022/12/27 03:27:30;;;;;;;7.17;3.37;;;;;;;7.38;47.96;100832.56;10432434;28;20236;-66
2022/12/27 03:38:03;;;;;;;3.83;3.20;;;;;;;8.63;46.67;100840.63;10437150;28;20231;-66
2022/12/27 03:43:14;;;;;;;5.43;3.50;;;;;;;7.34;47.79;100853.28;10436502;28;20235;-66
2022/12/27 03:48:22;;;;;;;11.20;3.40;;;;;;;7.91;46.36;100853.50;10434813;28;20235;-66
2022/12/27 03:53:38;;;;;;;7.07;3.20;;;;;;;8.21;47.17;100862.34;10431740;28;20614;-66
2022/12/27 03:58:40;;;;;;;8.90;3.50;;;;;;;8.99;46.08;100836.28;10437519;28;20231;-67
2022/12/27 04:03:42;;;;;;;4.87;3.20;;;;;;;9.17;45.82;100817.63;10434868;28;20235;-66
2022/12/27 04:35:26;;;;;;;6.13;3.30;;;;;;;7.78;48.61;100773.84;10443934;28;20239;-82
2022/12/27 04:56:28;;;;;;;4.47;3.30;;;;;;;8.95;45.86;100786.00;10429763;28;20245;-66
2022/12/27 05:06:51;;;;;;;6.97;3.33;;;;;;;8.38;46.68;100820.75;10435615;28;20254;-66
2022/12/27 05:17:13;;;;;;;3.87;3.47;;;;;;;6.84;47.82;100871.91;10439616;28;20236;-65
2022/12/27 05:27:48;;;;;;;8.60;3.30;;;;;;;7.51;47.52;100865.09;10444647;28;20302;-65
2022/12/27 05:32:54;;;;;;;7.73;3.50;;;;;;;7.70;46.95;100854.47;10476875;28;20328;-66
2022/12/27 05:37:56;;;;;;;3.90;3.30;;;;;;;6.74;47.28;100870.00;10475797;28;20230;-65
2022/12/27 05:42:59;;;;;;;5.80;3.70;;;;;;;7.76;47.57;100833.56;10470557;28;20665;-66
2022/12/27 05:48:01;;;;;;;4.93;3.30;;;;;;;7.64;47.06;100855.00;10460902;28;20235;-66
2022/12/27 05:53:03;;;;;;;3.87;3.10;;;;;;;8.08;46.16;100852.81;10475837;28;20219;-65
2022/12/27 05:58:05;;;;;;;5.80;3.37;;;;;;;6.25;48.46;100901.63;10476936;28;20238;-65
2022/12/27 06:03:06;;;;;;;5.77;3.50;;;;;;;7.76;46.93;100853.06;10462577;28;20230;-65
2022/12/27 06:08:09;;;;;;;7.70;4.10;;;;;;;7.30;47.12;100878.50;10480713;28;20754;-65
2022/12/27 06:13:11;;;;;;;3.93;3.37;;;;;;;7.41;47.12;100841.13;10478791;28;20611;-65
2022/12/27 06:18:13;;;;;;;6.63;3.30;;;;;;;7.83;45.85;100838.22;10481368;28;20238;-66
2022/12/27 06:23:14;;;;;;;5.17;3.70;;;;;;;7.10;46.76;100889.09;10478079;28;20287;-65
2022/12/27 06:28:16;;;;;;;4.37;3.53;;;;;;;7.66;46.26;100870.84;10477290;28;20246;-65
2022/12/27 06:38:27;;;;;;;5.80;3.20;;;;;;;7.76;46.49;100870.88;10313751;28;20622;-35
2022/12/27 06:43:29;;;;;;;3.87;3.57;;;;;;;6.20;47.76;100922.44;10313749;28;20609;-35
2022/12/27 06:48:31;;;;;;;5.93;3.47;;;;;;;6.54;47.63;100898.31;10313777;28;20240;-35
2022/12/27 06:53:35;;;;;;;4.10;3.70;;;;;;;8.13;45.49;100851.53;10312088;28;20264;-34
2022/12/27 06:58:37;;;;;;;4.40;3.40;;;;;;;7.70;46.19;100885.59;10310536;28;20300;-35
2022/12/27 07:03:39;;;;;;;4.50;3.80;;;;;;;6.78;47.17;100926.47;10320246;28;20241;-35
2022/12/27 07:08:41;;;;;;;8.77;5.20;;;;;;;7.91;45.44;100921.00;10301460;28;20244;-34
2022/12/27 07:13:47;;;;;;;5.60;3.80;;;;;;;7.62;45.03;100931.56;10313353;28;20241;-35
2022/12/27 07:18:49;;;;;;;5.97;3.50;;;;;;;7.73;45.94;100938.63;10315828;28;20724;-35
2022/12/27 07:23:50;;;;;;;6.27;2.83;;;;;;;8.12;45.38;100917.34;10317294;28;20253;-35
2022/12/27 07:28:53;;;;;;;7.77;3.90;;;;;;;8.12;45.39;100933.34;10317248;28;20243;-35
2022/12/27 07:33:56;;;;;;;6.13;4.33;;;;;;;8.31;44.96;100940.50;10308415;28;20234;-35
2022/12/27 07:38:58;;;;;;;6.83;4.43;;;;;;;7.92;44.75;100967.97;10312127;28;20238;-35
2022/12/27 07:44:00;;;;;;;46.33;19.13;;;;;;;7.30;46.28;100996.50;10313804;28;20690;-35
2022/12/27 07:49:02;;;;;;;8.37;6.30;;;;;;;7.65;46.33;100951.78;10317460;28;20250;-35
2022/12/27 07:54:04;;;;;;;8.23;4.53;;;;;;;7.78;45.16;100956.84;10321702;28;20676;-35
2022/12/27 07:59:11;;;;;;;7.33;4.70;;;;;;;7.52;46.51;100954.69;10321538;28;20296;-35
2022/12/27 08:04:13;;;;;;;5.47;4.00;;;;;;;7.86;45.96;100949.03;10319512;28;20325;-35
2022/12/27 08:09:28;;;;;;;6.43;3.50;;;;;;;8.26;45.70;100932.09;10321753;28;20682;-34
2022/12/27 08:14:30;;;;;;;7.13;3.90;;;;;;;9.50;43.98;100886.59;10309411;28;20245;-34
2022/12/27 08:19:32;;;;;;;9.33;5.70;;;;;;;8.32;44.50;100987.53;10318875;28;20217;-34
2022/12/27 08:24:33;;;;;;;8.67;4.97;;;;;;;9.02;44.92;100928.59;10311672;28;20507;-35
2022/12/27 08:29:36;;;;;;;10.00;5.67;;;;;;;9.94;43.63;100902.78;10319400;28;20244;-35
2022/12/27 08:34:38;;;;;;;10.47;5.13;;;;;;;8.11;45.45;101033.81;10311645;28;20241;-35
2022/12/27 08:39:40;;;;;;;8.10;5.57;;;;;;;9.11;44.46;100962.44;10315947;28;20240;-35
2022/12/27 08:44:42;;;;;;;8.10;4.20;;;;;;;8.77;44.89;100988.75;10312494;28;20660;-35
2022/12/27 08:49:44;;;;;;;7.87;5.10;;;;;;;10.06;43.54;100914.09;10316970;28;20768;-35
2022/12/27 08:54:46;;;;;;;5.17;4.07;;;;;;;8.36;45.09;101018.25;10319982;28;20245;-35
2022/12/27 08:59:48;;;;;;;5.60;3.97;;;;;;;10.54;42.89;100954.78;10316641;28;20236;-34
2022/12/27 09:04:49;;;;;;;7.27;4.30;;;;;;;10.10;43.69;100960.91;10318701;28;20256;-35
2022/12/27 09:09:51;;;;;;;5.00;4.00;;;;;;;9.43;44.09;101033.28;10311209;28;20235;-35
2022/12/27 09:14:53;;;;;;;7.10;4.23;;;;;;;9.35;44.34;101038.53;10319407;28;20741;-35
2022/12/27 09:19:55;;;;;;;7.20;3.87;;;;;;;9.05;44.52;101034.28;10312196;28;20242;-35
2022/12/27 09:24:57;;;;;;;4.30;3.40;;;;;;;6.93;47.78;101071.50;10314916;28;20234;-34
2022/12/27 09:29:58;;;;;;;4.87;3.90;;;;;;;8.56;46.04;101028.94;10318205;28;20244;-34
2022/12/27 09:35:01;;;;;;;6.37;3.63;;;;;;;9.40;45.17;100973.00;10315013;28;20312;-35
2022/12/27 09:40:03;;;;;;;6.40;3.77;;;;;;;9.76;45.04;100958.88;10320152;28;20230;-36
2022/12/27 09:45:33;;;;;;;4.87;3.83;;;;;;;7.83;47.62;101038.06;10302106;28;20256;-36
2022/12/27 09:50:46;;;;;;;4.53;3.70;;;;;;;9.09;46.20;100984.91;10317747;28;20743;-35
2022/12/27 09:55:54;;;;;;;2.77;2.40;;;;;;;5.80;50.78;101053.22;10311343;28;20236;-35
2022/12/27 10:00:56;;;;;;;6.93;3.60;;;;;;;7.53;48.93;100948.38;10310573;28;20237;-34
2022/12/27 10:06:26;;;;;;;6.90;4.07;;;;;;;8.71;46.40;100963.50;10314950;28;20244;-35
2022/12/27 10:11:50;;;;;;;3.67;3.27;;;;;;;7.96;47.77;100983.69;10309387;28;20236;-35
2022/12/27 10:17:29;;;;;;;4.00;3.60;;;;;;;8.53;48.05;100917.19;10309034;28;20727;-35
2022/12/27 10:22:37;;;;;;;3.90;3.50;;;;;;;7.84;48.52;100961.63;10298700;28;20346;-35
2022/12/27 10:27:40;;;;;;;8.17;3.13;;;;;;;6.79;49.86;100973.41;10315457;28;20601;-34
2022/12/27 10:32:43;;;;;;;4.60;3.73;;;;;;;8.64;47.24;100893.84;10314815;28;20269;-36
2022/12/27 10:37:46;;;;;;;7.10;4.00;;;;;;;8.43;46.96;100938.53;10307259;28;20257;-35
2022/12/27 10:43:05;;;;;;;6.53;3.43;;;;;;;7.40;48.10;100966.41;10316828;28;20325;-34
2022/12/27 10:48:12;;;;;;;5.03;3.10;;;;;;;7.17;48.70;100979.91;10317231;28;20234;-35
2022/12/27 10:53:32;;;;;;;8.33;3.60;;;;;;;7.11;49.78;100954.66;10318356;28;20238;-34
2022/12/27 10:58:36;;;;;;;7.10;3.03;;;;;;;8.35;47.98;100893.88;10310631;28;20320;-35
2022/12/27 11:06:24;;;;;;;4.00;3.47;;;;;;;5.03;54.23;100929.16;10538912;27;20793;-68
2022/12/27 11:11:26;;;;;;;4.67;3.40;;;;;;;5.28;55.24;100851.13;10491078;28;20313;-68
2022/12/27 11:16:31;;;;;;;8.07;3.73;;;;;;;5.56;54.58;100888.69;10512688;28;20246;-68
2022/12/27 11:21:38;;;;;;;3.83;3.13;;;;;;;5.80;54.46;100861.13;10472306;28;20739;-68
2022/12/27 11:26:48;;;;;;;3.70;3.40;;;;;;;5.80;54.87;100834.56;10472805;28;20238;-68
2022/12/27 11:31:55;;;;;;;7.93;3.60;;;;;;;7.06;52.29;100757.28;10480867;28;20309;-68
2022/12/27 11:37:13;;;;;;;3.13;2.87;;;;;;;5.97;53.91;100900.41;10472470;28;20238;-68
2022/12/27 11:42:24;;;;;;;5.23;3.50;;;;;;;7.22;52.29;100786.00;10468317;28;20585;-68
2022/12/27 11:47:44;;;;;;;10.13;6.53;;;;;;;7.47;51.38;100843.22;10459390;28;20227;-68
2022/12/27 11:52:58;;;;;;;6.77;4.13;;;;;;;6.89;52.08;100881.16;10467500;28;20728;-68
2022/12/27 11:58:37;;;;;;;4.33;3.20;;;;;;;7.69;50.71;100841.28;10466427;28;20300;-69
2022/12/27 12:03:59;;;;;;;7.10;3.83;;;;;;;8.57;49.16;100788.69;10460959;28;20747;-68
2022/12/27 12:09:28;;;;;;;7.47;4.20;;;;;;;7.64;50.59;100879.00;10471569;28;20231;-68
2022/12/27 12:14:58;;;;;;;5.93;4.10;;;;;;;8.09;49.97;100830.50;10449863;28;20272;-68
2022/12/27 12:20:22;;;;;;;4.87;3.60;;;;;;;8.29;50.34;100820.63;10438592;28;20236;-68
2022/12/27 12:25:39;;;;;;;8.93;3.97;;;;;;;8.27;49.49;100835.13;10436634;28;20236;-69
2022/12/27 12:30:48;;;;;;;9.37;3.90;;;;;;;8.25;49.99;100834.38;10428615;28;20246;-68
2022/12/27 12:36:02;;;;;;;7.47;3.87;;;;;;;8.28;50.08;100828.78;10434955;28;20265;-68
2022/12/27 12:41:26;;;;;;;7.17;4.60;;;;;;;7.81;50.18;100884.63;10448254;28;20326;-69
2022/12/27 12:46:54;;;;;;;8.73;4.20;;;;;;;6.90;51.25;100937.88;10457523;28;20238;-68
2022/12/27 12:52:09;;;;;;;7.47;4.80;;;;;;;7.92;50.05;100861.38;10466061;28;20224;-68
2022/12/27 12:57:29;;;;;;;7.50;4.40;;;;;;;8.44;49.50;100813.00;10468630;28;20606;-69
2022/12/27 13:02:34;;;;;;;5.87;4.07;;;;;;;8.61;49.18;100791.91;10494544;28;20716;-69
2022/12/27 13:07:42;;;;;;;8.17;4.60;;;;;;;8.74;49.13;100813.75;10492306;28;20912;-69
2022/12/27 13:13:00;;;;;;;7.23;3.60;;;;;;;6.88;51.85;100929.19;10490394;28;20234;-69
2022/12/27 13:18:04;;;;;;;3.83;3.17;;;;;;;8.40;49.67;100806.28;10462276;28;20657;-69
2022/12/27 13:23:17;;;;;;;5.60;3.63;;;;;;;8.29;50.16;100819.81;10450808;28;20235;-69
2022/12/27 13:28:51;;;;;;;4.77;3.10;;;;;;;8.77;49.39;100797.44;10442578;28;20236;-69
2022/12/27 13:34:14;;;;;;;4.93;3.07;;;;;;;8.19;49.61;100840.31;10489111;28;20223;-69
2022/12/27 13:39:19;;;;;;;3.83;3.00;;;;;;;8.72;49.26;100781.03;10492060;28;20739;-69
2022/12/27 13:45:02;;;;;;;6.83;3.50;;;;;;;8.52;49.35;100833.63;10496841;28;20226;-69
2022/12/27 13:50:48;;;;;;;5.07;3.30;;;;;;;8.94;48.73;100768.28;10483057;28;20603;-69
2022/12/27 13:55:59;;;;;;;10.50;3.93;;;;;;;8.72;48.96;100815.72;10463436;28;20615;-75
2022/12/27 14:01:40;;;;;;;6.13;3.20;;;;;;;9.30;47.62;100779.00;10475964;28;20309;-76
2022/12/27 14:07:07;;;;;;;6.67;3.73;;;;;;;6.79;52.06;100938.81;10482748;28;20995;-66
2022/12/27 14:12:42;;;;;;;8.70;3.87;;;;;;;8.11;49.81;100852.50;10467734;28;20622;-65
2022/12/27 14:18:16;;;;;;;4.83;3.67;;;;;;;9.13;48.23;100778.00;10467200;28;20231;-66
2022/12/27 14:23:44;;;;;;;8.57;3.50;;;;;;;9.10;48.65;100794.34;10437780;28;20231;-77
2022/12/27 14:29:23;;;;;;;4.43;3.30;;;;;;;7.87;49.84;100902.75;10477657;28;20231;-66
2022/12/27 14:34:54;;;;;;;8.30;3.53;;;;;;;9.12;49.21;100753.16;10451669;28;20240;-66
2022/12/27 14:40:25;;;;;;;6.87;3.57;;;;;;;7.58;50.53;100860.03;10477225;28;20235;-66
2022/12/27 14:45:53;;;;;;;6.10;3.80;;;;;;;7.56;51.54;100841.56;10467193;28;20239;-70
2022/12/27 14:51:21;;;;;;;5.00;3.70;;;;;;;7.42;50.83;100826.81;10444537;28;20242;-68
2022/12/27 14:57:26;;;;;;;5.20;3.10;;;;;;;6.56;52.18;100872.41;10487971;28;20273;-68
2022/12/27 15:03:00;;;;;;;8.33;5.70;;;;;;;6.73;51.21;100844.38;10485989;28;20236;-68
2022/12/27 15:08:23;;;;;;;8.00;4.60;;;;;;;7.09;51.55;100822.69;10475337;28;20254;-68
2022/12/27 15:13:56;;;;;;;6.23;4.47;;;;;;;7.04;51.79;100808.94;10486863;28;20237;-68
2022/12/27 15:19:21;;;;;;;8.47;4.23;;;;;;;5.98;53.57;100859.59;10443301;28;20231;-68
2022/12/27 15:24:41;;;;;;;6.80;4.37;;;;;;;6.89;52.88;100803.19;10421280;28;20628;-67
2022/12/27 15:29:54;;;;;;;7.23;3.80;;;;;;;7.20;52.69;100734.72;10484995;28;20237;-67
2022/12/27 15:35:27;;;;;;;6.07;3.80;;;;;;;6.04;54.03;100843.16;10473441;28;20737;-68
2022/12/27 15:40:31;;;;;;;5.13;3.80;;;;;;;6.60;53.36;100787.91;10435339;28;20239;-67
2022/12/27 15:45:45;;;;;;;6.07;4.33;;;;;;;6.41;53.38;100784.19;10427433;28;20243;-67
2022/12/27 15:51:32;;;;;;;7.83;4.20;;;;;;;7.53;51.12;100719.31;10466683;28;20624;-69
2022/12/27 15:56:45;;;;;;;5.93;4.23;;;;;;;7.40;51.58;100735.56;10477224;28;20593;-67
2022/12/27 16:01:47;;;;;;;7.80;3.77;;;;;;;6.56;52.61;100818.41;10481569;28;20705;-67
2022/12/27 16:06:51;;;;;;;9.63;4.00;;;;;;;6.33;52.34;100847.81;10496345;28;20680;-67
2022/12/27 16:12:04;;;;;;;5.77;3.90;;;;;;;6.18;53.60;100847.28;10490074;28;20239;-67
2022/12/27 16:17:24;;;;;;;7.67;5.00;;;;;;;6.67;52.75;100769.56;10485156;28;20754;-78
2022/12/27 16:22:32;;;;;;;11.97;6.37;;;;;;;6.55;53.44;100790.97;10490133;28;20262;-68
2022/12/27 16:27:34;;;;;;;6.47;4.20;;;;;;;7.34;51.92;100730.78;10482791;28;20231;-69
2022/12/27 16:32:36;;;;;;;7.03;4.50;;;;;;;9.65;47.47;100682.00;10485950;28;20247;-68
2022/12/27 16:37:49;;;;;;;6.53;5.30;;;;;;;9.74;46.90;100773.75;10491882;28;20249;-68
2022/12/27 16:42:57;;;;;;;7.70;5.00;;;;;;;8.76;48.35;100814.44;10489481;28;20231;-69
2022/12/27 16:48:33;;;;;;;10.77;4.63;;;;;;;7.17;51.77;100810.41;10484364;28;20261;-68
2022/12/27 16:53:54;;;;;;;7.73;5.00;;;;;;;6.12;53.49;100869.06;10479271;28;20241;-68
2022/12/27 16:58:56;;;;;;;7.90;4.67;;;;;;;6.05;53.68;100826.22;10487687;28;20287;-70
2022/12/27 17:03:58;;;;;;;5.70;4.70;;;;;;;6.38;53.62;100799.53;10493660;28;20235;-68
2022/12/27 17:09:08;;;;;;;11.20;5.07;;;;;;;8.53;50.34;100663.75;10492912;28;20231;-68
2022/12/27 17:14:13;;;;;;;9.67;5.37;;;;;;;8.85;47.75;100757.50;10490643;28;20244;-68
2022/12/27 17:19:26;;;;;;;7.67;4.87;;;;;;;8.38;49.81;100732.75;10490720;28;20231;-67
2022/12/27 17:24:28;;;;;;;7.03;5.20;;;;;;;9.45;46.63;100728.56;10485614;28;20242;-67
2022/12/27 17:29:39;;;;;;;8.60;5.73;;;;;;;7.66;49.81;100838.88;10490961;28;20223;-67
2022/12/27 17:34:53;;;;;;;10.30;5.40;;;;;;;8.78;47.82;100774.28;10487862;28;20226;-67
2022/12/27 17:40:00;;;;;;;9.67;6.83;;;;;;;10.07;45.93;100728.56;10486623;28;20234;-68
2022/12/27 17:45:14;;;;;;;11.47;7.67;;;;;;;9.38;46.44;100795.13;10492360;28;20227;-68
2022/12/27 17:50:24;;;;;;;8.90;5.50;;;;;;;6.77;50.89;100892.88;10488852;28;20234;-68
2022/12/27 18:01:00;;;;;;;7.83;5.30;;;;;;;9.37;48.00;100694.63;10483873;28;20263;-70
2022/12/27 18:06:03;;;;;;;13.03;7.63;;;;;;;10.37;45.32;100708.47;10503096;28;20233;-68
2022/12/27 18:11:05;;;;;;;13.53;7.40;;;;;;;7.80;49.12;100840.31;10488657;28;20591;-68
2022/12/27 18:16:17;;;;;;;10.80;7.37;;;;;;;7.56;50.02;100849.56;10486769;28;20235;-68
2022/12/27 18:21:25;;;;;;;11.97;8.50;;;;;;;9.32;46.50;100720.97;10489284;28;20239;-68
2022/12/27 18:26:36;;;;;;;11.83;8.73;;;;;;;9.62;45.71;100732.22;10491876;28;20231;-68
2022/12/27 18:31:48;;;;;;;10.73;7.80;;;;;;;8.80;46.92;100797.13;10483684;28;20760;-68
2022/12/27 18:37:19;;;;;;;9.33;7.37;;;;;;;8.94;46.48;100798.50;10494212;28;20233;-68
2022/12/27 18:42:21;;;;;;;9.57;7.03;;;;;;;9.36;46.41;100762.38;10492232;28;20230;-68
2022/12/27 18:47:26;;;;;;;11.07;8.13;;;;;;;8.43;47.23;100814.00;10491026;28;20740;-68
2022/12/27 18:52:36;;;;;;;10.40;7.63;;;;;;;8.06;48.09;100829.94;10489847;28;20239;-68
2022/12/27 18:57:38;;;;;;;11.77;7.80;;;;;;;7.76;49.08;100802.44;10490788;28;20237;-69
2022/12/27 19:02:40;;;;;;;11.43;8.47;;;;;;;7.57;48.96;100783.81;10482723;28;20836;-68
2022/12/27 19:12:53;;;;;;;12.03;8.57;;;;;;;9.44;45.66;100685.00;10430954;28;20224;-37
2022/12/27 19:18:05;;;;;;;8.67;7.40;;;;;;;8.67;47.21;100727.25;10392869;28;20225;-35
2022/12/27 19:23:28;;;;;;;12.27;8.80;;;;;;;8.48;48.22;100747.72;10469160;22;20765;-36
2022/12/27 19:28:31;;;;;;;10.67;8.17;;;;;;;8.90;47.57;100685.00;10484090;28;20237;-36
2022/12/27 19:33:34;;;;;;;16.50;11.97;;;;;;;7.68;48.35;100775.69;10494046;28;20287;-36
2022/12/27 19:38:41;;;;;;;21.33;14.63;;;;;;;8.65;47.46;100690.03;10495011;28;20639;-38
2022/12/27 19:43:48;;;;;;;24.30;16.87;;;;;;;8.82;46.38;100701.75;10496586;28;20671;-36
2022/12/27 19:48:50;;;;;;;17.60;12.13;;;;;;;7.48;48.36;100793.47;10496882;28;20317;-36
2022/12/27 19:54:15;;;;;;;16.33;12.37;;;;;;;7.78;48.86;100749.00;10487184;28;20227;-36
2022/12/27 19:59:19;;;;;;;14.60;11.93;;;;;;;8.96;46.32;100654.19;10483272;28;20238;-36
2022/12/27 20:04:21;;;;;;;15.33;11.53;;;;;;;8.67;46.65;100700.56;10468297;28;20235;-36
2022/12/27 20:09:22;;;;;;;16.47;12.03;;;;;;;8.55;46.79;100693.78;10488556;28;20250;-36
2022/12/27 20:14:24;;;;;;;33.43;22.37;;;;;;;7.82;48.42;100729.09;10485096;28;20223;-36
2022/12/27 20:19:26;;;;;;;24.20;16.70;;;;;;;8.64;46.51;100684.84;10484031;28;20233;-36
2022/12/27 20:24:30;;;;;;;18.73;12.50;;;;;;;7.53;49.27;100761.94;10496524;28;20277;-36
2022/12/27 20:29:32;;;;;;;15.00;10.53;;;;;;;5.33;54.32;100748.06;10485877;28;20869;-38
2022/12/27 20:34:33;;;;;;;15.17;9.70;;;;;;;5.24;55.00;100709.00;10471306;28;20265;-38
2022/12/27 20:39:35;;;;;;;14.07;9.47;;;;;;;5.36;55.37;100669.16;10487095;28;20264;-38
2022/12/27 20:44:38;;;;;;;13.03;9.80;;;;;;;6.15;53.99;100628.78;10483453;28;20231;-36
2022/12/27 20:49:41;;;;;;;12.87;10.20;;;;;;;6.87;50.96;100629.50;10478225;28;20265;-38
2022/12/27 20:54:42;;;;;;;16.77;10.57;;;;;;;7.11;51.46;100559.91;10482821;28;20242;-38
2022/12/27 20:59:44;;;;;;;16.13;10.10;;;;;;;6.39;52.66;100584.06;10476312;28;20554;-39
2022/12/27 21:04:46;;;;;;;17.27;10.47;;;;;;;7.62;50.63;100534.66;10481195;28;20234;-38
2022/12/27 21:09:48;;;;;;;16.67;12.07;;;;;;;7.30;50.27;100605.09;10477210;28;20318;-39
2022/12/27 21:14:49;;;;;;;16.90;11.60;;;;;;;7.53;50.02;100559.50;10474855;28;20337;-38
2022/12/27 21:19:51;;;;;;;17.27;12.50;;;;;;;7.42;49.49;100594.28;10479699;28;20263;-38
2022/12/27 21:24:53;;;;;;;14.33;11.20;;;;;;;7.22;50.49;100612.97;10478426;28;20231;-36
2022/12/27 21:29:55;;;;;;;14.03;9.80;;;;;;;6.66;51.46;100648.22;10488784;28;20234;-36
2022/12/27 21:34:56;;;;;;;16.07;10.03;;;;;;;6.85;51.44;100632.28;10479596;28;20239;-38
2022/12/27 21:39:58;;;;;;;13.93;9.93;;;;;;;7.05;50.47;100619.84;10484396;28;20230;-36
2022/12/27 21:45:00;;;;;;;15.10;11.03;;;;;;;7.13;50.23;100600.50;10485258;28;20878;-38
2022/12/27 21:50:01;;;;;;;16.67;11.93;;;;;;;7.44;49.06;100577.22;10485170;28;20242;-38
2022/12/27 21:55:03;;;;;;;13.37;9.43;;;;;;;6.84;50.51;100616.50;10481360;28;20697;-36
2022/12/27 22:00:06;;;;;;;12.17;9.37;;;;;;;6.79;51.35;100566.38;10481651;28;20227;-38
2022/12/27 22:05:07;;;;;;;11.87;9.10;;;;;;;7.40;49.94;100527.03;10477311;28;20233;-36
2022/12/27 22:10:09;;;;;;;17.57;9.47;;;;;;;6.44;50.96;100620.88;10473441;28;20243;-36
2022/12/27 22:15:11;;;;;;;12.23;9.00;;;;;;;6.63;50.40;100583.69;10482904;28;20338;-36
2022/12/27 22:20:13;;;;;;;12.03;8.90;;;;;;;7.98;48.26;100494.81;10487478;28;20237;-36
2022/12/27 22:25:15;;;;;;;12.20;9.40;;;;;;;7.35;48.86;100565.56;10477558;28;20652;-36
2022/12/27 22:30:17;;;;;;;17.57;9.83;;;;;;;6.12;50.92;100637.84;10483373;28;20235;-39
2022/12/27 22:35:19;;;;;;;14.10;9.63;;;;;;;7.45;49.03;100520.28;10471121;28;20238;-38
2022/12/27 22:40:21;;;;;;;12.13;8.93;;;;;;;7.07;48.55;100585.09;10477316;28;20235;-36
2022/12/27 22:45:31;;;;;;;11.67;9.97;;;;;;;5.95;51.38;100651.78;10479811;28;20239;-38
2022/12/27 22:50:36;;;;;;;12.33;9.97;;;;;;;5.44;52.54;100638.31;10479620;28;20300;-38
2022/12/27 22:55:40;;;;;;;13.20;9.63;;;;;;;7.41;49.54;100486.09;10476117;28;20806;-38
2022/12/27 23:00:42;;;;;;;18.30;10.20;;;;;;;7.29;49.11;100522.72;10474010;28;20263;-37
2022/12/27 23:05:44;;;;;;;15.47;10.97;;;;;;;5.91;51.19;100619.31;10475073;28;20588;-38
2022/12/27 23:10:46;;;;;;;15.27;10.93;;;;;;;5.04;51.50;100639.00;10479459;28;20258;-38
2022/12/27 23:15:56;;;;;;;13.30;10.83;;;;;;;5.62;50.57;100619.16;10481939;28;20238;-38
2022/12/27 23:20:58;;;;;;;19.80;11.70;;;;;;;6.87;49.34;100509.78;10479826;28;20295;-38
2022/12/27 23:26:21;;;;;;;14.67;11.57;;;;;;;7.24;48.29;100507.19;10488898;28;20421;-38
2022/12/27 23:31:24;;;;;;;14.40;11.20;;;;;;;6.94;48.94;100542.84;10478839;28;20237;-38
2022/12/27 23:36:26;;;;;;;15.03;11.43;;;;;;;6.20;49.67;100576.91;10475266;28;20254;-38
2022/12/27 23:41:28;;;;;;;17.23;11.57;;;;;;;5.80;51.00;100596.34;10485409;28;20238;-38
2022/12/27 23:46:32;;;;;;;14.80;10.87;;;;;;;7.13;49.30;100478.91;10480179;28;20235;-38
2022/12/27 23:51:34;;;;;;;17.57;12.30;;;;;;;7.06;48.75;100493.78;10488692;28;20246;-38
2022/12/27 23:56:35;;;;;;;14.47;10.73;;;;;;;6.34;50.39;100554.41;10485787;28;20234;-38
